Time;durP1;ratioP1;P1;durP2;ratioP2;P2;SDS_P1;SDS_P2;PMS_P1;PMS_P2;Temp;Humidity;BMP_temperature;BMP_pressure;BME280_temperature;BME280_humidity;BME280_pressure;Samples;Min_cycle;Max_cycle;Signal;HPM_P1;HPM_P2
2023/08/26 00:00:21;;;;;;;3.20;3.20;;;18.80;99.90;;;;;;4951236;28;20864;-68
2023/08/26 00:02:48;;;;;;;2.90;2.90;;;18.70;99.90;;;;;;4957783;28;20468;-66
2023/08/26 00:05:15;;;;;;;2.60;2.60;;;18.70;99.90;;;;;;4961683;28;20463;-67
2023/08/26 00:07:42;;;;;;;2.70;2.70;;;18.60;99.90;;;;;;4940702;28;21030;-67
2023/08/26 00:10:11;;;;;;;2.40;2.40;;;18.50;99.90;;;;;;4950134;28;20492;-66
2023/08/26 00:12:38;;;;;;;2.70;2.70;;;18.50;99.90;;;;;;4958183;28;20518;-68
2023/08/26 00:15:05;;;;;;;2.40;2.40;;;18.50;99.90;;;;;;4965349;28;20548;-66
2023/08/26 00:17:34;;;;;;;2.07;2.07;;;18.40;99.90;;;;;;4966393;28;20456;-66
2023/08/26 00:20:01;;;;;;;2.30;2.30;;;18.40;99.90;;;;;;4954633;28;20543;-67
2023/08/26 00:22:28;;;;;;;3.20;3.20;;;18.30;99.90;;;;;;4953622;28;20529;-67
2023/08/26 00:24:55;;;;;;;3.60;3.60;;;18.20;99.90;;;;;;4953550;28;20948;-67
2023/08/26 00:27:23;;;;;;;3.90;3.90;;;18.10;99.90;;;;;;4955167;28;20825;-67
2023/08/26 00:29:50;;;;;;;4.30;4.30;;;17.90;99.90;;;;;;4960571;28;20842;-67
2023/08/26 00:32:18;;;;;;;5.70;5.60;;;17.80;99.90;;;;;;4955617;28;20817;-66
2023/08/26 00:34:45;;;;;;;6.20;6.10;;;17.60;99.90;;;;;;4946695;28;20551;-67
2023/08/26 00:37:12;;;;;;;6.70;6.60;;;17.40;99.90;;;;;;4958209;28;20460;-67
2023/08/26 00:39:40;;;;;;;6.90;6.80;;;17.30;99.90;;;;;;4960340;28;20548;-66
2023/08/26 00:42:07;;;;;;;6.70;6.60;;;17.20;99.90;;;;;;4950804;28;20474;-67
2023/08/26 00:44:35;;;;;;;6.40;6.30;;;17.10;99.90;;;;;;4962236;28;20459;-66
2023/08/26 00:47:02;;;;;;;6.40;6.30;;;17.00;99.90;;;;;;4961695;28;20947;-67
2023/08/26 00:49:29;;;;;;;6.40;6.30;;;16.90;99.90;;;;;;4949687;28;20490;-66
2023/08/26 00:51:57;;;;;;;6.33;6.23;;;16.90;99.90;;;;;;4945700;28;21039;-66
2023/08/26 00:54:24;;;;;;;6.80;6.70;;;16.80;99.90;;;;;;4964365;28;20880;-67
2023/08/26 00:56:53;;;;;;;6.60;6.50;;;16.70;99.90;;;;;;4969576;28;20462;-67
2023/08/26 00:59:20;;;;;;;6.20;6.10;;;16.60;99.90;;;;;;4968143;28;20461;-68
2023/08/26 01:01:49;;;;;;;6.20;6.10;;;16.50;99.90;;;;;;4960934;28;20871;-68
2023/08/26 01:04:16;;;;;;;6.50;6.40;;;16.40;99.90;;;;;;4967567;28;20489;-66
2023/08/26 01:06:43;;;;;;;6.80;6.70;;;16.20;99.90;;;;;;4967018;28;21109;-68
2023/08/26 01:09:10;;;;;;;7.00;6.90;;;16.10;99.90;;;;;;4958860;28;20474;-68
2023/08/26 01:11:41;;;;;;;7.60;7.50;;;16.00;99.90;;;;;;4972157;28;20882;-67
2023/08/26 01:14:13;;;;;;;7.40;7.30;;;15.90;99.90;;;;;;4966133;28;20526;-67
2023/08/26 01:16:42;;;;;;;7.40;7.30;;;15.80;99.90;;;;;;4961744;28;21010;-66
2023/08/26 01:19:20;;;;;;;8.20;8.10;;;15.70;99.90;;;;;;4959191;28;20487;-67
2023/08/26 01:21:50;;;;;;;7.93;7.83;;;15.60;99.90;;;;;;4969277;28;20455;-67
2023/08/26 01:24:18;;;;;;;7.80;7.70;;;15.60;99.90;;;;;;4968564;28;20928;-67
2023/08/26 01:26:45;;;;;;;8.60;8.50;;;15.50;99.90;;;;;;4964896;28;20463;-66
2023/08/26 01:29:12;;;;;;;8.10;8.00;;;15.40;99.90;;;;;;4968436;28;20464;-66
2023/08/26 01:31:41;;;;;;;8.10;8.00;;;15.30;99.90;;;;;;4975518;28;20458;-66
2023/08/26 01:34:12;;;;;;;8.13;8.03;;;15.30;99.90;;;;;;4956186;28;20479;-68
2023/08/26 01:36:44;;;;;;;7.70;7.60;;;15.20;99.90;;;;;;4980602;28;20470;-68
2023/08/26 01:39:14;;;;;;;8.17;8.07;;;15.20;99.90;;;;;;4967107;28;20462;-66
2023/08/26 01:41:47;;;;;;;7.60;7.50;;;15.20;99.90;;;;;;4966859;28;21122;-68
2023/08/26 01:44:14;;;;;;;7.57;7.47;;;15.10;99.90;;;;;;4967744;28;21000;-67
2023/08/26 01:46:41;;;;;;;7.07;6.97;;;15.10;99.90;;;;;;4969956;28;20910;-67
2023/08/26 01:49:08;;;;;;;6.93;6.83;;;15.00;99.90;;;;;;4967489;28;20595;-67
2023/08/26 01:51:35;;;;;;;6.60;6.50;;;15.00;99.90;;;;;;4960944;28;20491;-67
2023/08/26 01:54:01;;;;;;;6.50;6.40;;;15.00;99.90;;;;;;4959383;28;20488;-67
2023/08/26 01:56:29;;;;;;;6.60;6.50;;;14.90;99.90;;;;;;4967234;28;20458;-68
2023/08/26 01:58:57;;;;;;;6.30;6.20;;;14.90;99.90;;;;;;4968172;28;20463;-68
2023/08/26 02:01:24;;;;;;;5.93;5.83;;;14.80;99.90;;;;;;4963447;28;20843;-68
2023/08/26 02:03:52;;;;;;;6.17;6.07;;;14.70;99.90;;;;;;4962375;28;20494;-67
2023/08/26 02:06:19;;;;;;;6.10;6.00;;;14.70;99.90;;;;;;4965268;28;20463;-68
2023/08/26 02:08:47;;;;;;;5.60;5.50;;;14.60;99.90;;;;;;4961293;28;20523;-67
2023/08/26 02:11:15;;;;;;;5.43;5.33;;;14.60;99.90;;;;;;4965989;28;20537;-67
2023/08/26 02:13:42;;;;;;;5.40;5.30;;;14.60;99.90;;;;;;4966964;28;20459;-68
2023/08/26 02:16:11;;;;;;;5.00;5.00;;;14.50;99.90;;;;;;4960368;28;20467;-69
2023/08/26 02:18:38;;;;;;;5.20;5.10;;;14.50;99.90;;;;;;4966470;28;21053;-66
2023/08/26 02:21:06;;;;;;;5.30;5.20;;;14.50;99.90;;;;;;4961761;28;20463;-66
2023/08/26 02:23:33;;;;;;;5.40;5.30;;;14.50;99.90;;;;;;4964568;28;20472;-67
2023/08/26 02:26:00;;;;;;;5.30;5.20;;;14.40;99.90;;;;;;4967511;28;20752;-68
2023/08/26 02:28:26;;;;;;;4.90;4.90;;;14.40;99.90;;;;;;4964654;28;20467;-67
2023/08/26 02:30:54;;;;;;;5.10;5.10;;;14.40;99.90;;;;;;4959615;28;20498;-67
2023/08/26 02:33:24;;;;;;;5.50;5.40;;;14.30;99.90;;;;;;4961583;28;20469;-68
2023/08/26 02:35:51;;;;;;;4.97;4.97;;;14.20;99.90;;;;;;4959209;28;20893;-66
2023/08/26 02:38:18;;;;;;;5.47;5.37;;;14.20;99.90;;;;;;4967764;28;20470;-68
2023/08/26 02:40:52;;;;;;;5.60;5.50;;;14.10;99.90;;;;;;4966014;28;20479;-68
2023/08/26 02:43:20;;;;;;;4.93;4.93;;;14.10;99.90;;;;;;4963867;28;20475;-68
2023/08/26 02:45:47;;;;;;;4.70;4.70;;;14.00;99.90;;;;;;4969883;28;20546;-66
2023/08/26 02:48:13;;;;;;;5.27;5.17;;;14.00;99.90;;;;;;4953185;28;20480;-67
2023/08/26 02:50:41;;;;;;;4.63;4.63;;;14.00;99.90;;;;;;4967536;28;20824;-68
2023/08/26 02:53:08;;;;;;;4.40;4.40;;;13.90;99.90;;;;;;4967443;28;20546;-68
2023/08/26 02:55:35;;;;;;;4.30;4.30;;;13.90;99.90;;;;;;4963418;28;20872;-68
2023/08/26 02:58:02;;;;;;;4.00;4.00;;;13.90;99.90;;;;;;4963805;28;20484;-67
2023/08/26 03:00:29;;;;;;;4.37;4.37;;;13.90;99.90;;;;;;4963481;28;20471;-68
2023/08/26 03:02:55;;;;;;;4.00;4.00;;;13.80;99.90;;;;;;4969115;28;20463;-69
2023/08/26 03:05:22;;;;;;;3.87;3.87;;;13.80;99.90;;;;;;4968220;28;20459;-67
2023/08/26 03:07:51;;;;;;;3.70;3.70;;;13.80;99.90;;;;;;4967766;28;20467;-67
2023/08/26 03:10:18;;;;;;;3.60;3.60;;;13.80;99.90;;;;;;4969569;28;20479;-68
2023/08/26 03:12:45;;;;;;;3.87;3.87;;;13.80;99.90;;;;;;4969545;28;20530;-68
2023/08/26 03:15:12;;;;;;;3.70;3.70;;;13.80;99.90;;;;;;4962753;28;20476;-68
2023/08/26 03:17:40;;;;;;;3.77;3.77;;;13.90;99.90;;;;;;4972344;28;20869;-67
2023/08/26 03:20:08;;;;;;;3.73;3.73;;;13.90;99.90;;;;;;4963754;28;20474;-67
2023/08/26 03:22:35;;;;;;;3.90;3.90;;;13.90;99.90;;;;;;4966031;28;20862;-69
2023/08/26 03:25:05;;;;;;;3.90;3.90;;;14.00;99.90;;;;;;4965959;28;20472;-67
2023/08/26 03:27:33;;;;;;;4.13;4.13;;;14.10;99.90;;;;;;4969502;28;21090;-68
2023/08/26 03:30:00;;;;;;;4.30;4.30;;;14.10;99.90;;;;;;4970290;28;20939;-67
2023/08/26 03:32:27;;;;;;;4.40;4.40;;;14.10;99.90;;;;;;4961282;28;20543;-67
2023/08/26 03:34:54;;;;;;;4.70;4.70;;;14.20;99.90;;;;;;4962649;28;20814;-69
2023/08/26 03:37:22;;;;;;;4.80;4.80;;;14.30;99.90;;;;;;4969207;28;20938;-68
2023/08/26 03:39:49;;;;;;;4.93;4.93;;;14.30;99.90;;;;;;4968791;28;20455;-67
2023/08/26 03:42:17;;;;;;;4.93;4.93;;;14.30;99.90;;;;;;4962401;28;20502;-69
2023/08/26 03:44:44;;;;;;;5.13;5.07;;;14.40;99.90;;;;;;4966293;28;20471;-67
2023/08/26 03:47:11;;;;;;;5.50;5.40;;;14.40;99.90;;;;;;4964534;28;20468;-67
2023/08/26 03:49:37;;;;;;;5.80;5.70;;;14.40;99.90;;;;;;4969804;28;20460;-68
2023/08/26 03:52:04;;;;;;;5.30;5.20;;;14.50;99.90;;;;;;4962122;28;20491;-68
2023/08/26 03:54:31;;;;;;;5.60;5.50;;;14.50;99.90;;;;;;4969046;28;20844;-68
2023/08/26 03:56:58;;;;;;;5.60;5.50;;;14.60;99.90;;;;;;4958559;28;20986;-69
2023/08/26 03:59:29;;;;;;;5.70;5.60;;;14.60;99.90;;;;;;4970164;28;20449;-67
2023/08/26 04:01:56;;;;;;;6.27;6.17;;;14.60;99.90;;;;;;4960608;28;21062;-68
2023/08/26 04:04:22;;;;;;;5.97;5.87;;;14.70;99.90;;;;;;4966829;28;20459;-69
2023/08/26 04:06:49;;;;;;;6.30;6.20;;;14.60;99.90;;;;;;4966294;28;20460;-68
2023/08/26 04:09:16;;;;;;;6.73;6.63;;;14.70;99.90;;;;;;4957161;28;20506;-68
2023/08/26 04:11:43;;;;;;;6.50;6.40;;;14.70;99.90;;;;;;4966881;28;20825;-67
2023/08/26 04:14:10;;;;;;;6.80;6.70;;;14.60;99.90;;;;;;4968657;28;20942;-67
2023/08/26 04:16:38;;;;;;;6.63;6.53;;;14.60;99.90;;;;;;4969675;28;20574;-67
2023/08/26 04:19:06;;;;;;;6.90;6.80;;;14.50;99.90;;;;;;4959364;28;20515;-67
2023/08/26 04:21:32;;;;;;;6.40;6.30;;;14.40;99.90;;;;;;4968825;28;21001;-67
2023/08/26 04:23:59;;;;;;;6.60;6.50;;;14.40;99.90;;;;;;4961583;28;20514;-67
2023/08/26 04:26:26;;;;;;;6.70;6.60;;;14.40;99.90;;;;;;4969021;28;20811;-67
2023/08/26 04:28:54;;;;;;;6.43;6.33;;;14.30;99.90;;;;;;4968886;28;20463;-68
2023/08/26 04:31:20;;;;;;;6.20;6.10;;;14.20;99.90;;;;;;4968538;28;20483;-67
2023/08/26 04:33:49;;;;;;;6.40;6.30;;;14.30;99.90;;;;;;4954968;28;20535;-68
2023/08/26 04:36:16;;;;;;;6.23;6.13;;;14.30;99.90;;;;;;4954294;28;20472;-67
2023/08/26 04:38:45;;;;;;;6.30;6.20;;;14.30;99.90;;;;;;4965730;28;20546;-68
2023/08/26 04:41:12;;;;;;;6.67;6.57;;;14.30;99.90;;;;;;4965509;28;20547;-68
2023/08/26 04:43:40;;;;;;;6.30;6.20;;;14.30;99.90;;;;;;4967505;28;20469;-68
2023/08/26 04:46:07;;;;;;;6.20;6.10;;;14.40;99.90;;;;;;4965297;28;20519;-68
2023/08/26 04:48:34;;;;;;;6.30;6.20;;;14.30;99.90;;;;;;4965988;28;20460;-68
2023/08/26 04:51:05;;;;;;;6.43;6.33;;;14.30;99.90;;;;;;4960080;28;21061;-67
2023/08/26 04:53:33;;;;;;;6.10;6.00;;;14.20;99.90;;;;;;4954243;28;20834;-67
2023/08/26 04:56:00;;;;;;;6.23;6.13;;;14.20;99.90;;;;;;4967372;28;20463;-68
2023/08/26 04:58:28;;;;;;;5.70;5.60;;;14.20;99.90;;;;;;4965152;28;20546;-66
2023/08/26 05:00:55;;;;;;;5.87;5.77;;;14.20;99.90;;;;;;4966778;28;20460;-67
2023/08/26 05:03:23;;;;;;;5.90;5.80;;;14.10;99.90;;;;;;4963867;28;21019;-68
2023/08/26 05:05:50;;;;;;;5.73;5.63;;;14.20;99.90;;;;;;4966064;28;20451;-67
2023/08/26 05:08:18;;;;;;;5.63;5.53;;;14.30;99.90;;;;;;4950197;28;20472;-66
2023/08/26 05:10:45;;;;;;;5.80;5.70;;;14.40;99.90;;;;;;4954715;28;20495;-67
2023/08/26 05:13:12;;;;;;;6.00;5.90;;;14.50;99.90;;;;;;4965203;28;20961;-67
2023/08/26 05:15:39;;;;;;;6.63;6.53;;;14.50;99.90;;;;;;4968903;28;20459;-67
2023/08/26 05:18:06;;;;;;;6.50;6.40;;;14.60;99.90;;;;;;4962626;28;20498;-68
2023/08/26 05:20:34;;;;;;;6.60;6.50;;;14.70;99.90;;;;;;4967260;28;20465;-67
2023/08/26 05:23:00;;;;;;;6.73;6.63;;;14.80;99.90;;;;;;4962918;28;20467;-68
2023/08/26 05:25:29;;;;;;;7.00;6.90;;;14.80;99.90;;;;;;4960892;28;20518;-68
2023/08/26 05:27:58;;;;;;;6.90;6.80;;;14.80;99.90;;;;;;4958863;28;20467;-67
2023/08/26 05:30:25;;;;;;;7.00;6.90;;;14.80;99.90;;;;;;4957213;28;20504;-67
2023/08/26 05:32:51;;;;;;;7.00;6.90;;;14.70;99.90;;;;;;4958915;28;20726;-67
2023/08/26 05:35:18;;;;;;;7.13;7.03;;;14.70;99.90;;;;;;4966984;28;20470;-68
2023/08/26 05:37:45;;;;;;;7.60;7.50;;;14.70;99.90;;;;;;4963463;28;20470;-68
2023/08/26 05:40:14;;;;;;;7.80;7.70;;;14.70;99.90;;;;;;4959137;28;20606;-68
2023/08/26 05:42:42;;;;;;;7.70;7.60;;;14.70;99.90;;;;;;4959842;28;20570;-68
2023/08/26 05:45:10;;;;;;;7.60;7.50;;;14.60;99.90;;;;;;4966731;28;20510;-68
2023/08/26 05:47:36;;;;;;;7.50;7.40;;;14.60;99.90;;;;;;4966924;28;20463;-67
2023/08/26 05:50:05;;;;;;;8.00;7.90;;;14.60;99.90;;;;;;4965915;28;20551;-68
2023/08/26 05:52:32;;;;;;;8.27;8.17;;;14.60;99.90;;;;;;4952761;28;21030;-67
2023/08/26 05:54:59;;;;;;;8.30;8.20;;;14.70;99.90;;;;;;4959648;28;20488;-68
2023/08/26 05:57:27;;;;;;;8.30;8.20;;;14.70;99.90;;;;;;4965748;28;20468;-68
2023/08/26 05:59:56;;;;;;;8.43;8.33;;;14.70;99.90;;;;;;4962805;28;20518;-68
2023/08/26 06:02:22;;;;;;;8.20;8.10;;;14.80;99.90;;;;;;4965356;28;20982;-68
2023/08/26 06:04:49;;;;;;;8.33;8.23;;;14.80;99.90;;;;;;4967548;28;20463;-68
2023/08/26 06:07:16;;;;;;;8.60;8.50;;;14.90;99.90;;;;;;4962755;28;20467;-68
2023/08/26 06:09:43;;;;;;;8.00;7.90;;;14.90;99.90;;;;;;4962919;28;20507;-67
2023/08/26 06:12:10;;;;;;;8.00;7.90;;;15.00;99.90;;;;;;4964557;28;20494;-68
2023/08/26 06:14:38;;;;;;;8.73;8.63;;;15.00;99.90;;;;;;4967485;28;20487;-68
2023/08/26 06:17:06;;;;;;;8.77;8.67;;;15.10;99.90;;;;;;4960251;28;20471;-67
2023/08/26 06:19:33;;;;;;;8.73;8.63;;;15.10;99.90;;;;;;4967726;28;20847;-67
2023/08/26 06:22:00;;;;;;;9.47;9.27;;;15.10;99.90;;;;;;4960783;28;20472;-67
2023/08/26 06:24:27;;;;;;;9.07;8.87;;;15.20;99.90;;;;;;4956618;28;20471;-68
2023/08/26 06:26:54;;;;;;;9.37;9.17;;;15.20;99.90;;;;;;4965104;28;20448;-67
2023/08/26 06:29:24;;;;;;;9.40;9.20;;;15.30;99.90;;;;;;4961632;28;20974;-68
2023/08/26 06:31:51;;;;;;;9.70;9.50;;;15.30;99.90;;;;;;4967768;28;20745;-68
2023/08/26 06:34:20;;;;;;;9.30;9.10;;;15.40;99.90;;;;;;4961764;28;20470;-67
2023/08/26 06:36:47;;;;;;;9.87;9.67;;;15.50;99.90;;;;;;4964222;28;21007;-67
2023/08/26 06:39:14;;;;;;;9.60;9.40;;;15.50;99.90;;;;;;4966368;28;20471;-68
2023/08/26 06:41:40;;;;;;;9.70;9.50;;;15.60;99.90;;;;;;4969740;28;20571;-67
2023/08/26 06:44:08;;;;;;;10.17;9.97;;;15.60;99.90;;;;;;4971436;28;20565;-67
2023/08/26 06:46:36;;;;;;;9.67;9.47;;;15.60;99.90;;;;;;4964212;28;20460;-67
2023/08/26 06:49:03;;;;;;;9.80;9.60;;;15.60;99.90;;;;;;4970388;28;20514;-67
2023/08/26 06:51:31;;;;;;;9.90;9.70;;;15.70;99.90;;;;;;4963260;28;20562;-67
2023/08/26 06:53:58;;;;;;;9.87;9.67;;;15.80;99.90;;;;;;4963049;28;20488;-68
2023/08/26 06:56:24;;;;;;;10.20;10.00;;;15.80;99.90;;;;;;4952649;28;20460;-68
2023/08/26 06:58:52;;;;;;;9.80;9.60;;;15.90;99.90;;;;;;4943962;29;20526;-68
2023/08/26 07:01:19;;;;;;;10.50;10.30;;;15.90;99.90;;;;;;4944365;28;20570;-68
2023/08/26 07:03:46;;;;;;;10.30;10.10;;;16.00;99.90;;;;;;4949784;28;20485;-67
2023/08/26 07:06:13;;;;;;;10.00;9.80;;;16.20;99.90;;;;;;4950817;28;20467;-68
2023/08/26 07:08:41;;;;;;;9.80;9.60;;;16.20;99.90;;;;;;4939808;28;20971;-68
2023/08/26 07:11:09;;;;;;;9.80;9.60;;;16.30;99.90;;;;;;4947958;29;20900;-68
2023/08/26 07:13:35;;;;;;;10.80;10.60;;;16.40;99.90;;;;;;4944238;28;20472;-69
2023/08/26 07:16:03;;;;;;;10.80;10.60;;;16.40;99.90;;;;;;4949089;28;20464;-68
2023/08/26 07:18:29;;;;;;;11.00;10.73;;;16.50;99.90;;;;;;4945512;29;20480;-68
2023/08/26 07:20:58;;;;;;;11.63;11.33;;;16.60;99.90;;;;;;4952536;28;20967;-68
2023/08/26 07:23:25;;;;;;;11.63;11.33;;;16.70;99.90;;;;;;4945226;28;20468;-68
2023/08/26 07:25:54;;;;;;;11.40;11.10;;;16.70;99.90;;;;;;4951282;28;20471;-69
2023/08/26 07:28:20;;;;;;;11.20;10.90;;;16.80;99.90;;;;;;4946747;28;20524;-68
2023/08/26 07:30:48;;;;;;;11.83;11.53;;;16.80;99.90;;;;;;4949890;28;20558;-68
2023/08/26 07:33:15;;;;;;;11.20;10.90;;;16.80;99.90;;;;;;4950342;28;20543;-68
2023/08/26 07:35:43;;;;;;;11.60;11.30;;;16.90;99.90;;;;;;4950712;28;20947;-68
2023/08/26 07:38:10;;;;;;;11.50;11.20;;;17.00;99.90;;;;;;4947875;28;20972;-68
2023/08/26 07:40:37;;;;;;;11.90;11.60;;;17.00;99.90;;;;;;4949465;28;20942;-68
2023/08/26 07:43:05;;;;;;;11.57;11.27;;;17.00;99.90;;;;;;4943535;28;20460;-68
2023/08/26 07:45:32;;;;;;;12.10;11.80;;;17.10;99.90;;;;;;4943314;28;20456;-68
2023/08/26 07:48:00;;;;;;;12.40;12.10;;;17.20;99.90;;;;;;4949328;29;20460;-68
2023/08/26 07:50:27;;;;;;;11.40;11.10;;;17.30;99.90;;;;;;4943960;28;20543;-68
2023/08/26 07:52:53;;;;;;;12.17;11.87;;;17.20;99.90;;;;;;4947723;28;20530;-68
2023/08/26 07:55:21;;;;;;;12.03;11.73;;;17.20;99.90;;;;;;4961806;28;20487;-68
2023/08/26 07:57:48;;;;;;;12.17;11.87;;;17.20;99.90;;;;;;4961520;28;20988;-68
2023/08/26 08:00:16;;;;;;;12.17;11.87;;;17.40;99.90;;;;;;4969095;28;20942;-70
2023/08/26 08:02:43;;;;;;;12.13;11.83;;;17.40;99.90;;;;;;4968471;28;20464;-68
2023/08/26 08:05:10;;;;;;;12.57;12.17;;;17.40;99.90;;;;;;4966863;28;20463;-69
2023/08/26 08:07:37;;;;;;;12.10;11.80;;;17.60;99.90;;;;;;4961886;28;20997;-68
2023/08/26 08:10:04;;;;;;;12.37;12.07;;;17.60;99.90;;;;;;4961414;28;20464;-68
2023/08/26 08:12:31;;;;;;;12.10;11.80;;;17.70;99.90;;;;;;4966333;28;20526;-67
2023/08/26 08:14:58;;;;;;;12.37;12.07;;;17.80;99.90;;;;;;4967413;28;20813;-68
2023/08/26 08:17:26;;;;;;;12.10;11.80;;;18.00;99.90;;;;;;4965624;28;20459;-68
2023/08/26 08:19:53;;;;;;;12.20;11.90;;;18.00;99.90;;;;;;4968343;28;20490;-69
2023/08/26 08:22:34;;;;;;;12.40;12.10;;;18.10;99.90;;;;;;4962825;28;20806;-68
2023/08/26 08:25:02;;;;;;;12.30;12.00;;;18.10;99.90;;;;;;4958341;28;20566;-68
2023/08/26 08:27:30;;;;;;;12.20;11.90;;;18.10;99.90;;;;;;4965484;28;21001;-68
2023/08/26 08:29:57;;;;;;;12.37;12.07;;;18.20;99.90;;;;;;4965005;28;20471;-69
2023/08/26 08:32:27;;;;;;;12.10;11.80;;;18.10;99.90;;;;;;4966166;28;20598;-68
2023/08/26 08:34:55;;;;;;;12.63;12.30;;;18.20;99.90;;;;;;4968199;28;20463;-67
2023/08/26 08:37:22;;;;;;;12.53;12.20;;;18.30;99.90;;;;;;4961324;28;20471;-68
2023/08/26 08:39:49;;;;;;;12.30;12.00;;;18.40;99.90;;;;;;4968627;28;20503;-68
2023/08/26 08:42:17;;;;;;;12.27;11.97;;;18.40;99.90;;;;;;4962528;28;20504;-68
2023/08/26 08:44:46;;;;;;;12.43;12.13;;;18.50;99.90;;;;;;4967057;28;20533;-67
2023/08/26 08:47:14;;;;;;;12.17;11.87;;;18.50;99.90;;;;;;4968274;28;20754;-68
2023/08/26 08:49:43;;;;;;;12.10;11.80;;;18.60;99.90;;;;;;4966882;28;20488;-68
2023/08/26 08:52:11;;;;;;;12.40;12.10;;;18.50;99.90;;;;;;4966370;28;20998;-68
2023/08/26 08:54:38;;;;;;;12.90;12.50;;;18.60;99.90;;;;;;4961122;28;20506;-68
2023/08/26 08:57:06;;;;;;;12.33;12.03;;;18.60;99.90;;;;;;4959895;28;20475;-67
2023/08/26 08:59:36;;;;;;;12.50;12.20;;;18.70;99.90;;;;;;4967455;28;20856;-67
2023/08/26 09:02:05;;;;;;;12.10;11.80;;;19.20;99.90;;;;;;4967858;28;20467;-68
2023/08/26 09:04:32;;;;;;;12.37;12.07;;;19.90;99.90;;;;;;4965662;28;20459;-68
2023/08/26 09:07:03;;;;;;;12.20;11.90;;;20.30;99.90;;;;;;4957636;28;21124;-67
2023/08/26 09:09:30;;;;;;;12.43;12.13;;;21.00;99.90;;;;;;4959835;28;20495;-68
2023/08/26 09:11:58;;;;;;;12.90;12.50;;;21.50;99.90;;;;;;4967290;28;20591;-68
2023/08/26 09:14:25;;;;;;;12.57;12.27;;;21.90;99.90;;;;;;4967851;28;20455;-69
2023/08/26 09:16:54;;;;;;;12.60;12.30;;;22.10;99.90;;;;;;4967780;28;20470;-66
2023/08/26 09:19:22;;;;;;;12.40;12.10;;;22.30;99.90;;;;;;4965581;28;20523;-67
2023/08/26 09:21:49;;;;;;;12.60;12.30;;;22.40;99.90;;;;;;4966425;28;20819;-69
2023/08/26 09:24:18;;;;;;;12.93;12.53;;;22.10;99.90;;;;;;4956289;28;20472;-69
2023/08/26 09:26:59;;;;;;;12.40;12.10;;;22.20;99.90;;;;;;4964333;28;20463;-67
2023/08/26 09:29:26;;;;;;;12.50;12.20;;;22.70;99.90;;;;;;4954736;28;20478;-68
2023/08/26 09:31:53;;;;;;;12.60;12.30;;;22.70;99.90;;;;;;4965627;28;20466;-69
2023/08/26 09:34:24;;;;;;;12.80;12.40;;;23.00;99.90;;;;;;4962054;28;20493;-67
2023/08/26 09:36:52;;;;;;;13.27;12.87;;;22.90;99.90;;;;;;4965408;28;20464;-68
2023/08/26 09:39:21;;;;;;;12.90;12.50;;;23.00;99.90;;;;;;4956169;28;20699;-66
2023/08/26 09:41:48;;;;;;;13.30;12.90;;;23.30;99.90;;;;;;4962863;28;20852;-69
2023/08/26 09:44:17;;;;;;;13.10;12.70;;;22.90;99.90;;;;;;4966282;28;20547;-68
2023/08/26 09:46:45;;;;;;;13.47;13.07;;;23.40;99.90;;;;;;4958156;28;20558;-67
2023/08/26 09:49:13;;;;;;;12.73;12.33;;;23.80;99.90;;;;;;4961995;28;21065;-68
2023/08/26 09:51:46;;;;;;;13.00;12.60;;;23.60;99.90;;;;;;4957750;28;20464;-67
2023/08/26 09:54:16;;;;;;;12.80;12.40;;;23.90;99.90;;;;;;4956717;28;20583;-67
2023/08/26 09:56:45;;;;;;;13.00;12.60;;;24.00;99.90;;;;;;4946079;29;20521;-66
2023/08/26 09:59:13;;;;;;;13.23;12.83;;;24.10;99.90;;;;;;4946508;28;20465;-68
2023/08/26 10:01:40;;;;;;;12.77;12.40;;;24.70;99.90;;;;;;4950236;28;20467;-68
2023/08/26 10:04:09;;;;;;;13.37;12.97;;;25.20;99.90;;;;;;4940695;29;20469;-67
2023/08/26 10:06:40;;;;;;;13.30;12.90;;;25.10;99.90;;;;;;4947457;28;20552;-67
2023/08/26 10:09:09;;;;;;;13.23;12.83;;;25.00;99.90;;;;;;4942234;28;20500;-67
2023/08/26 10:11:39;;;;;;;13.37;12.97;;;25.30;99.90;;;;;;4945346;29;20835;-68
2023/08/26 10:14:12;;;;;;;14.10;13.70;;;25.30;99.90;;;;;;4946010;29;20533;-67
2023/08/26 10:16:42;;;;;;;13.60;13.20;;;24.60;99.90;;;;;;4943353;29;20468;-68
2023/08/26 10:19:09;;;;;;;13.70;13.30;;;24.30;99.90;;;;;;4941158;29;20488;-67
2023/08/26 10:21:37;;;;;;;13.60;13.20;;;24.20;99.90;;;;;;4941759;28;20516;-67
2023/08/26 10:24:05;;;;;;;14.43;14.03;;;23.90;99.90;;;;;;4945348;29;20510;-67
2023/08/26 10:26:33;;;;;;;13.60;13.20;;;24.10;99.90;;;;;;4942971;29;20979;-67
2023/08/26 10:29:02;;;;;;;13.17;12.77;;;24.10;99.90;;;;;;4940205;29;20878;-68
2023/08/26 10:31:34;;;;;;;13.20;12.80;;;24.70;99.90;;;;;;4944190;28;20465;-68
2023/08/26 10:34:13;;;;;;;13.10;12.70;;;25.00;99.90;;;;;;4946769;29;20882;-68
2023/08/26 10:36:42;;;;;;;13.67;13.27;;;25.10;99.90;;;;;;4937896;29;20463;-69
2023/08/26 10:39:15;;;;;;;13.50;13.10;;;24.60;99.90;;;;;;4947260;29;20551;-68
2023/08/26 10:42:14;;;;;;;12.60;12.30;;;24.10;99.90;;;;;;4944919;29;21051;-68
2023/08/26 10:44:43;;;;;;;13.80;13.40;;;24.20;99.90;;;;;;4945754;29;20452;-68
2023/08/26 10:47:11;;;;;;;13.10;12.70;;;24.60;99.90;;;;;;4943961;29;20532;-69
2023/08/26 10:49:38;;;;;;;13.97;13.57;;;24.90;99.90;;;;;;4935489;29;20504;-68
2023/08/26 10:52:10;;;;;;;13.60;13.20;;;25.30;99.90;;;;;;4946276;29;21024;-69
2023/08/26 10:54:37;;;;;;;13.27;12.87;;;25.30;99.90;;;;;;4957391;28;20562;-68
2023/08/26 10:57:08;;;;;;;14.43;14.03;;;25.10;99.90;;;;;;4964028;28;20479;-69
2023/08/26 10:59:38;;;;;;;13.27;12.87;;;25.20;99.90;;;;;;4965840;28;21082;-69
2023/08/26 11:02:08;;;;;;;13.67;13.27;;;25.20;99.90;;;;;;4966435;28;20468;-69
2023/08/26 11:04:42;;;;;;;13.83;13.43;;;25.40;99.90;;;;;;4959924;28;20527;-68
2023/08/26 11:07:14;;;;;;;14.73;14.33;;;25.10;99.90;;;;;;4955352;28;20475;-69
2023/08/26 11:09:40;;;;;;;14.27;13.87;;;24.90;99.90;;;;;;4965481;28;20468;-69
2023/08/26 11:12:24;;;;;;;13.40;13.00;;;24.60;99.90;;;;;;4966444;28;20451;-69
2023/08/26 11:14:54;;;;;;;14.03;13.63;;;24.40;99.90;;;;;;4955213;28;20500;-68
2023/08/26 11:17:20;;;;;;;14.37;13.97;;;24.60;99.90;;;;;;4967380;28;20535;-68
2023/08/26 11:19:47;;;;;;;14.03;13.63;;;24.20;99.90;;;;;;4963307;28;20484;-69
2023/08/26 11:22:15;;;;;;;13.60;13.20;;;24.00;99.90;;;;;;4966530;28;20575;-68
2023/08/26 11:24:48;;;;;;;13.30;12.90;;;23.80;99.90;;;;;;4965805;28;20455;-69
2023/08/26 11:27:15;;;;;;;13.73;13.33;;;24.50;99.90;;;;;;4959106;28;20514;-69
2023/08/26 11:29:43;;;;;;;13.50;13.10;;;25.60;99.90;;;;;;4968928;28;20832;-69
2023/08/26 11:32:12;;;;;;;14.40;14.00;;;25.90;99.90;;;;;;4971548;28;20823;-69
2023/08/26 11:34:40;;;;;;;13.80;13.40;;;25.90;99.90;;;;;;4965072;28;20495;-68
2023/08/26 11:37:08;;;;;;;14.30;13.90;;;26.10;99.90;;;;;;4968886;28;20526;-68
2023/08/26 11:39:35;;;;;;;13.40;13.00;;;26.60;99.90;;;;;;4959856;28;20471;-69
2023/08/26 11:42:12;;;;;;;13.50;13.10;;;26.40;99.90;;;;;;4968290;28;20554;-69
2023/08/26 11:44:39;;;;;;;15.33;14.83;;;26.60;99.90;;;;;;4959873;28;20479;-68
2023/08/26 11:47:08;;;;;;;15.43;14.93;;;27.20;99.90;;;;;;4968894;28;20468;-69
2023/08/26 11:49:36;;;;;;;15.50;15.00;;;27.80;99.90;;;;;;4965671;28;20640;-69
2023/08/26 11:52:04;;;;;;;15.17;14.67;;;28.30;99.90;;;;;;4965454;28;20459;-68
2023/08/26 11:54:30;;;;;;;14.30;13.90;;;27.70;99.90;;;;;;4968939;28;21244;-69
2023/08/26 11:56:57;;;;;;;14.63;14.23;;;27.80;99.90;;;;;;4963906;28;20563;-68
2023/08/26 11:59:24;;;;;;;14.83;14.33;;;28.00;99.90;;;;;;4966353;28;20511;-69
2023/08/26 12:01:51;;;;;;;14.70;14.30;;;28.40;99.90;;;;;;4959482;28;20476;-69
2023/08/26 12:04:19;;;;;;;15.00;14.50;;;28.90;99.90;;;;;;4969260;28;20825;-70
2023/08/26 12:06:49;;;;;;;14.80;14.40;;;29.60;99.90;;;;;;4967201;28;20515;-70
2023/08/26 12:09:16;;;;;;;14.20;13.80;;;29.70;99.90;;;;;;4965621;28;20546;-68
2023/08/26 12:11:43;;;;;;;14.57;14.17;;;29.30;99.90;;;;;;4962389;28;20937;-69
2023/08/26 12:14:21;;;;;;;15.10;14.60;;;29.00;99.90;;;;;;4966107;28;20495;-68
2023/08/26 12:16:49;;;;;;;14.83;14.43;;;28.70;99.90;;;;;;4962127;28;20479;-68
2023/08/26 12:19:19;;;;;;;14.10;13.70;;;28.90;99.90;;;;;;4966736;28;20479;-68
2023/08/26 12:21:50;;;;;;;15.40;14.90;;;28.80;99.90;;;;;;4966672;28;21009;-68
2023/08/26 12:24:22;;;;;;;14.50;14.10;;;28.60;99.90;;;;;;4967707;28;20459;-68
2023/08/26 12:26:49;;;;;;;13.97;13.57;;;28.10;99.90;;;;;;4963520;28;20464;-69
2023/08/26 12:29:17;;;;;;;14.37;13.97;;;27.00;99.90;;;;;;4961351;28;20467;-67
2023/08/26 12:31:44;;;;;;;14.37;13.97;;;26.80;99.90;;;;;;4968553;28;20467;-68
2023/08/26 12:34:11;;;;;;;14.47;14.07;;;27.20;99.90;;;;;;4966581;28;20490;-69
2023/08/26 12:36:39;;;;;;;14.53;14.13;;;26.60;99.90;;;;;;4961118;28;20482;-68
2023/08/26 12:39:07;;;;;;;14.57;14.13;;;25.40;99.90;;;;;;4964290;28;20466;-68
2023/08/26 12:41:35;;;;;;;14.83;14.33;;;25.70;99.90;;;;;;4961808;28;20467;-68